sensor_id;sensor_type;location;lat;lon;timestamp;temperature;humidity
6357;DHT22;3211;53.452;-2.264;2022-09-09T00:01:29;16.40;99.90
6357;DHT22;3211;53.452;-2.264;2022-09-09T00:04:19;16.30;99.90
6357;DHT22;3211;53.452;-2.264;2022-09-09T00:07:07;16.30;99.90
6357;DHT22;3211;53.452;-2.264;2022-09-09T00:09:57;16.20;99.90
6357;DHT22;3211;53.452;-2.264;2022-09-09T00:12:47;16.20;99.90
6357;DHT22;3211;53.452;-2.264;2022-09-09T00:15:38;16.20;99.90
6357;DHT22;3211;53.452;-2.264;2022-09-09T00:18:25;16.10;99.90
6357;DHT22;3211;53.452;-2.264;2022-09-09T00:21:13;16.10;99.90
6357;DHT22;3211;53.452;-2.264;2022-09-09T00:23:56;16.20;99.90
6357;DHT22;3211;53.452;-2.264;2022-09-09T00:26:40;16.20;99.90
6357;DHT22;3211;53.452;-2.264;2022-09-09T00:29:28;16.10;99.90
6357;DHT22;3211;53.452;-2.264;2022-09-09T00:32:17;16.20;99.90
6357;DHT22;3211;53.452;-2.264;2022-09-09T00:35:03;16.20;99.90
6357;DHT22;3211;53.452;-2.264;2022-09-09T00:37:48;16.10;99.90
6357;DHT22;3211;53.452;-2.264;2022-09-09T00:40:34;16.20;99.90
6357;DHT22;3211;53.452;-2.264;2022-09-09T00:43:25;16.10;99.90
6357;DHT22;3211;53.452;-2.264;2022-09-09T00:46:25;16.10;99.90
6357;DHT22;3211;53.452;-2.264;2022-09-09T00:49:19;16.10;99.90
6357;DHT22;3211;53.452;-2.264;2022-09-09T00:52:13;16.10;99.90
6357;DHT22;3211;53.452;-2.264;2022-09-09T00:55:05;16.10;99.90
6357;DHT22;3211;53.452;-2.264;2022-09-09T00:57:49;16.10;99.90
6357;DHT22;3211;53.452;-2.264;2022-09-09T01:00:38;16.20;99.90
6357;DHT22;3211;53.452;-2.264;2022-09-09T01:03:33;16.20;99.90
6357;DHT22;3211;53.452;-2.264;2022-09-09T01:06:19;16.40;99.90
6357;DHT22;3211;53.452;-2.264;2022-09-09T01:09:21;16.30;99.90
6357;DHT22;3211;53.452;-2.264;2022-09-09T01:12:11;16.30;99.90
6357;DHT22;3211;53.452;-2.264;2022-09-09T01:14:58;16.30;99.90
6357;DHT22;3211;53.452;-2.264;2022-09-09T01:17:52;16.40;99.90
6357;DHT22;3211;53.452;-2.264;2022-09-09T01:20:53;16.30;99.90
6357;DHT22;3211;53.452;-2.264;2022-09-09T01:26:52;16.30;99.90
6357;DHT22;3211;53.452;-2.264;2022-09-09T01:29:37;16.30;99.90
6357;DHT22;3211;53.452;-2.264;2022-09-09T01:32:41;16.20;99.90
6357;DHT22;3211;53.452;-2.264;2022-09-09T01:35:31;16.30;99.90
6357;DHT22;3211;53.452;-2.264;2022-09-09T01:38:15;16.30;99.90
6357;DHT22;3211;53.452;-2.264;2022-09-09T01:40:57;16.30;99.90
6357;DHT22;3211;53.452;-2.264;2022-09-09T01:43:41;16.30;99.90
6357;DHT22;3211;53.452;-2.264;2022-09-09T01:46:23;16.20;99.90
6357;DHT22;3211;53.452;-2.264;2022-09-09T01:49:06;16.20;99.90
6357;DHT22;3211;53.452;-2.264;2022-09-09T01:51:53;16.20;99.90
6357;DHT22;3211;53.452;-2.264;2022-09-09T01:54:35;16.20;99.90
6357;DHT22;3211;53.452;-2.264;2022-09-09T01:57:20;16.30;99.90
6357;DHT22;3211;53.452;-2.264;2022-09-09T02:00:06;16.30;99.90
6357;DHT22;3211;53.452;-2.264;2022-09-09T02:02:58;16.30;99.90
6357;DHT22;3211;53.452;-2.264;2022-09-09T02:05:44;16.30;99.90
6357;DHT22;3211;53.452;-2.264;2022-09-09T02:08:35;16.20;99.90
6357;DHT22;3211;53.452;-2.264;2022-09-09T02:11:21;16.20;99.90
6357;DHT22;3211;53.452;-2.264;2022-09-09T02:14:08;16.30;99.90
6357;DHT22;3211;53.452;-2.264;2022-09-09T02:16:56;16.20;99.90
6357;DHT22;3211;53.452;-2.264;2022-09-09T02:19:44;16.20;99.90
6357;DHT22;3211;53.452;-2.264;2022-09-09T02:22:30;16.20;99.90
6357;DHT22;3211;53.452;-2.264;2022-09-09T02:25:17;16.20;99.90
6357;DHT22;3211;53.452;-2.264;2022-09-09T02:27:59;16.10;99.90
6357;DHT22;3211;53.452;-2.264;2022-09-09T02:30:44;16.10;99.90
6357;DHT22;3211;53.452;-2.264;2022-09-09T02:33:32;16.20;99.90
6357;DHT22;3211;53.452;-2.264;2022-09-09T02:36:16;16.20;99.90
6357;DHT22;3211;53.452;-2.264;2022-09-09T02:39:00;16.20;99.90
6357;DHT22;3211;53.452;-2.264;2022-09-09T02:41:42;16.20;99.90
6357;DHT22;3211;53.452;-2.264;2022-09-09T02:44:24;16.10;99.90
6357;DHT22;3211;53.452;-2.264;2022-09-09T02:47:28;16.20;99.90
6357;DHT22;3211;53.452;-2.264;2022-09-09T02:50:16;16.20;99.90
6357;DHT22;3211;53.452;-2.264;2022-09-09T02:53:07;16.20;99.90
6357;DHT22;3211;53.452;-2.264;2022-09-09T02:55:55;16.20;99.90
6357;DHT22;3211;53.452;-2.264;2022-09-09T02:58:39;16.10;99.90
6357;DHT22;3211;53.452;-2.264;2022-09-09T03:01:22;16.10;99.90
6357;DHT22;3211;53.452;-2.264;2022-09-09T03:04:03;16.10;99.90
6357;DHT22;3211;53.452;-2.264;2022-09-09T03:06:48;16.20;99.90
6357;DHT22;3211;53.452;-2.264;2022-09-09T03:09:30;16.20;99.90
6357;DHT22;3211;53.452;-2.264;2022-09-09T03:12:13;16.20;99.90
6357;DHT22;3211;53.452;-2.264;2022-09-09T03:14:55;16.10;99.90
6357;DHT22;3211;53.452;-2.264;2022-09-09T03:17:37;16.00;99.90
6357;DHT22;3211;53.452;-2.264;2022-09-09T03:20:19;16.10;99.90
6357;DHT22;3211;53.452;-2.264;2022-09-09T03:23:02;16.10;99.90
6357;DHT22;3211;53.452;-2.264;2022-09-09T03:25:47;16.10;99.90
6357;DHT22;3211;53.452;-2.264;2022-09-09T03:28:29;16.00;99.90
6357;DHT22;3211;53.452;-2.264;2022-09-09T03:31:12;16.00;99.90
6357;DHT22;3211;53.452;-2.264;2022-09-09T03:33:54;16.00;99.90
6357;DHT22;3211;53.452;-2.264;2022-09-09T03:36:36;16.10;99.90
6357;DHT22;3211;53.452;-2.264;2022-09-09T03:39:20;16.20;99.90
6357;DHT22;3211;53.452;-2.264;2022-09-09T03:42:02;16.10;99.90
6357;DHT22;3211;53.452;-2.264;2022-09-09T03:44:44;16.10;99.90
6357;DHT22;3211;53.452;-2.264;2022-09-09T03:47:32;16.20;99.90
6357;DHT22;3211;53.452;-2.264;2022-09-09T03:50:14;16.20;99.90
6357;DHT22;3211;53.452;-2.264;2022-09-09T03:52:56;16.30;99.90
6357;DHT22;3211;53.452;-2.264;2022-09-09T03:55:43;16.20;99.90
6357;DHT22;3211;53.452;-2.264;2022-09-09T03:58:26;16.20;99.90
6357;DHT22;3211;53.452;-2.264;2022-09-09T04:01:10;16.10;99.90
6357;DHT22;3211;53.452;-2.264;2022-09-09T04:03:53;16.10;99.90
6357;DHT22;3211;53.452;-2.264;2022-09-09T04:06:38;16.10;99.90
6357;DHT22;3211;53.452;-2.264;2022-09-09T04:09:20;16.10;99.90
6357;DHT22;3211;53.452;-2.264;2022-09-09T04:12:04;16.20;99.90
6357;DHT22;3211;53.452;-2.264;2022-09-09T04:14:46;16.10;99.90
6357;DHT22;3211;53.452;-2.264;2022-09-09T04:17:28;16.10;99.90
6357;DHT22;3211;53.452;-2.264;2022-09-09T04:20:10;16.10;99.90
6357;DHT22;3211;53.452;-2.264;2022-09-09T04:22:52;16.00;99.90
6357;DHT22;3211;53.452;-2.264;2022-09-09T04:25:34;16.10;99.90
6357;DHT22;3211;53.452;-2.264;2022-09-09T04:28:20;16.00;99.90
6357;DHT22;3211;53.452;-2.264;2022-09-09T04:31:07;16.10;99.90
6357;DHT22;3211;53.452;-2.264;2022-09-09T04:33:49;16.00;99.90
6357;DHT22;3211;53.452;-2.264;2022-09-09T04:36:32;16.00;99.90
6357;DHT22;3211;53.452;-2.264;2022-09-09T04:39:14;16.00;99.90
6357;DHT22;3211;53.452;-2.264;2022-09-09T04:41:56;16.00;99.90
6357;DHT22;3211;53.452;-2.264;2022-09-09T04:44:39;16.00;99.90
6357;DHT22;3211;53.452;-2.264;2022-09-09T04:47:21;16.00;99.90
6357;DHT22;3211;53.452;-2.264;2022-09-09T04:50:04;16.00;99.90
6357;DHT22;3211;53.452;-2.264;2022-09-09T04:52:46;16.00;99.90
6357;DHT22;3211;53.452;-2.264;2022-09-09T04:55:28;16.00;99.90
6357;DHT22;3211;53.452;-2.264;2022-09-09T04:58:10;16.00;99.90
6357;DHT22;3211;53.452;-2.264;2022-09-09T05:00:54;16.10;99.90
6357;DHT22;3211;53.452;-2.264;2022-09-09T05:03:36;16.10;99.90
6357;DHT22;3211;53.452;-2.264;2022-09-09T05:06:20;16.10;99.90
6357;DHT22;3211;53.452;-2.264;2022-09-09T05:09:02;16.10;99.90
6357;DHT22;3211;53.452;-2.264;2022-09-09T05:11:44;16.10;99.90
6357;DHT22;3211;53.452;-2.264;2022-09-09T05:14:26;16.00;99.90
6357;DHT22;3211;53.452;-2.264;2022-09-09T05:17:10;16.00;99.90
6357;DHT22;3211;53.452;-2.264;2022-09-09T05:19:53;16.00;99.90
6357;DHT22;3211;53.452;-2.264;2022-09-09T05:22:35;16.00;99.90
6357;DHT22;3211;53.452;-2.264;2022-09-09T05:25:17;16.00;99.90
6357;DHT22;3211;53.452;-2.264;2022-09-09T05:28:00;16.00;99.90
6357;DHT22;3211;53.452;-2.264;2022-09-09T05:30:42;16.10;99.90
6357;DHT22;3211;53.452;-2.264;2022-09-09T05:33:26;16.10;99.90
6357;DHT22;3211;53.452;-2.264;2022-09-09T05:36:10;16.00;99.90
6357;DHT22;3211;53.452;-2.264;2022-09-09T05:38:53;16.10;99.90
6357;DHT22;3211;53.452;-2.264;2022-09-09T05:41:35;16.20;99.90
6357;DHT22;3211;53.452;-2.264;2022-09-09T05:44:17;16.10;99.90
6357;DHT22;3211;53.452;-2.264;2022-09-09T05:46:59;16.20;99.90
6357;DHT22;3211;53.452;-2.264;2022-09-09T05:49:43;16.20;99.90
6357;DHT22;3211;53.452;-2.264;2022-09-09T05:52:25;16.20;99.90
6357;DHT22;3211;53.452;-2.264;2022-09-09T05:55:08;16.10;99.90
6357;DHT22;3211;53.452;-2.264;2022-09-09T05:57:50;16.20;99.90
6357;DHT22;3211;53.452;-2.264;2022-09-09T06:00:32;16.20;99.90
6357;DHT22;3211;53.452;-2.264;2022-09-09T06:03:14;16.20;99.90
6357;DHT22;3211;53.452;-2.264;2022-09-09T06:06:00;16.20;99.90
6357;DHT22;3211;53.452;-2.264;2022-09-09T06:08:43;16.20;99.90
6357;DHT22;3211;53.452;-2.264;2022-09-09T06:11:27;16.20;99.90
6357;DHT22;3211;53.452;-2.264;2022-09-09T06:14:11;16.20;99.90
6357;DHT22;3211;53.452;-2.264;2022-09-09T06:16:53;16.30;99.90
6357;DHT22;3211;53.452;-2.264;2022-09-09T06:19:35;16.30;99.90
6357;DHT22;3211;53.452;-2.264;2022-09-09T06:22:18;16.20;99.90
6357;DHT22;3211;53.452;-2.264;2022-09-09T06:25:01;16.20;99.90
6357;DHT22;3211;53.452;-2.264;2022-09-09T06:27:47;16.20;99.90
6357;DHT22;3211;53.452;-2.264;2022-09-09T06:30:29;16.20;99.90
6357;DHT22;3211;53.452;-2.264;2022-09-09T06:33:12;16.10;99.90
6357;DHT22;3211;53.452;-2.264;2022-09-09T06:35:54;16.10;99.90
6357;DHT22;3211;53.452;-2.264;2022-09-09T06:38:39;16.10;99.90
6357;DHT22;3211;53.452;-2.264;2022-09-09T06:41:22;16.10;99.90
6357;DHT22;3211;53.452;-2.264;2022-09-09T06:44:04;16.20;99.90
6357;DHT22;3211;53.452;-2.264;2022-09-09T06:46:46;16.20;99.90
6357;DHT22;3211;53.452;-2.264;2022-09-09T06:49:29;16.30;99.90
6357;DHT22;3211;53.452;-2.264;2022-09-09T06:52:11;16.30;99.90
6357;DHT22;3211;53.452;-2.264;2022-09-09T06:54:55;16.40;99.90
6357;DHT22;3211;53.452;-2.264;2022-09-09T06:57:39;16.40;99.90
6357;DHT22;3211;53.452;-2.264;2022-09-09T07:00:21;16.40;99.90
6357;DHT22;3211;53.452;-2.264;2022-09-09T07:03:03;16.50;99.90
6357;DHT22;3211;53.452;-2.264;2022-09-09T07:05:54;16.60;99.90
6357;DHT22;3211;53.452;-2.264;2022-09-09T07:08:36;16.70;99.90
6357;DHT22;3211;53.452;-2.264;2022-09-09T07:11:21;16.80;99.90
6357;DHT22;3211;53.452;-2.264;2022-09-09T07:14:03;16.80;99.90
6357;DHT22;3211;53.452;-2.264;2022-09-09T07:16:46;16.80;99.90
6357;DHT22;3211;53.452;-2.264;2022-09-09T07:19:28;16.90;99.90
6357;DHT22;3211;53.452;-2.264;2022-09-09T07:22:10;16.90;99.90
6357;DHT22;3211;53.452;-2.264;2022-09-09T07:24:52;16.90;99.90
6357;DHT22;3211;53.452;-2.264;2022-09-09T07:27:35;16.90;99.90
6357;DHT22;3211;53.452;-2.264;2022-09-09T07:30:17;16.90;99.90
6357;DHT22;3211;53.452;-2.264;2022-09-09T07:33:00;16.90;99.90
6357;DHT22;3211;53.452;-2.264;2022-09-09T07:35:43;17.00;99.90
6357;DHT22;3211;53.452;-2.264;2022-09-09T07:38:25;17.00;99.90
6357;DHT22;3211;53.452;-2.264;2022-09-09T07:41:08;17.20;99.90
6357;DHT22;3211;53.452;-2.264;2022-09-09T07:43:54;17.20;99.90
6357;DHT22;3211;53.452;-2.264;2022-09-09T07:46:37;17.30;99.90
6357;DHT22;3211;53.452;-2.264;2022-09-09T07:49:20;17.40;99.90
6357;DHT22;3211;53.452;-2.264;2022-09-09T07:52:04;17.40;99.90
6357;DHT22;3211;53.452;-2.264;2022-09-09T07:54:46;17.40;99.90
6357;DHT22;3211;53.452;-2.264;2022-09-09T07:57:28;17.40;99.90
6357;DHT22;3211;53.452;-2.264;2022-09-09T08:00:14;17.40;99.90
6357;DHT22;3211;53.452;-2.264;2022-09-09T08:02:56;17.60;99.90
6357;DHT22;3211;53.452;-2.264;2022-09-09T08:05:38;17.60;99.90
6357;DHT22;3211;53.452;-2.264;2022-09-09T08:08:20;17.70;99.90
6357;DHT22;3211;53.452;-2.264;2022-09-09T08:11:04;17.60;99.90
6357;DHT22;3211;53.452;-2.264;2022-09-09T08:13:48;17.60;99.90
6357;DHT22;3211;53.452;-2.264;2022-09-09T08:16:33;17.60;99.90
6357;DHT22;3211;53.452;-2.264;2022-09-09T08:19:17;17.50;99.90
6357;DHT22;3211;53.452;-2.264;2022-09-09T08:21:59;17.50;99.90
6357;DHT22;3211;53.452;-2.264;2022-09-09T08:24:42;17.40;99.90
6357;DHT22;3211;53.452;-2.264;2022-09-09T08:27:24;17.40;99.90
6357;DHT22;3211;53.452;-2.264;2022-09-09T08:30:07;17.40;99.90
6357;DHT22;3211;53.452;-2.264;2022-09-09T08:32:50;17.50;99.90
6357;DHT22;3211;53.452;-2.264;2022-09-09T08:35:32;17.60;99.90
6357;DHT22;3211;53.452;-2.264;2022-09-09T08:38:14;17.60;99.90
6357;DHT22;3211;53.452;-2.264;2022-09-09T08:41:04;17.50;99.90
6357;DHT22;3211;53.452;-2.264;2022-09-09T08:43:51;17.50;99.90
6357;DHT22;3211;53.452;-2.264;2022-09-09T08:46:46;17.50;99.90
6357;DHT22;3211;53.452;-2.264;2022-09-09T08:49:55;17.50;99.90
6357;DHT22;3211;53.452;-2.264;2022-09-09T08:52:47;17.60;99.90
6357;DHT22;3211;53.452;-2.264;2022-09-09T08:55:39;17.80;99.90
6357;DHT22;3211;53.452;-2.264;2022-09-09T08:58:25;17.90;99.90
6357;DHT22;3211;53.452;-2.264;2022-09-09T09:04:38;17.90;99.90
6357;DHT22;3211;53.452;-2.264;2022-09-09T09:07:31;17.90;99.90
6357;DHT22;3211;53.452;-2.264;2022-09-09T09:10:20;18.00;99.90
6357;DHT22;3211;53.452;-2.264;2022-09-09T09:13:13;18.20;99.90
6357;DHT22;3211;53.452;-2.264;2022-09-09T09:16:00;18.40;99.90
6357;DHT22;3211;53.452;-2.264;2022-09-09T09:18:44;18.50;99.90
6357;DHT22;3211;53.452;-2.264;2022-09-09T09:21:34;18.70;99.90
6357;DHT22;3211;53.452;-2.264;2022-09-09T09:24:22;18.70;99.90
6357;DHT22;3211;53.452;-2.264;2022-09-09T09:27:12;18.70;99.90
6357;DHT22;3211;53.452;-2.264;2022-09-09T09:29:57;18.60;99.90
6357;DHT22;3211;53.452;-2.264;2022-09-09T09:32:49;18.50;99.90
6357;DHT22;3211;53.452;-2.264;2022-09-09T09:35:33;18.60;99.90
6357;DHT22;3211;53.452;-2.264;2022-09-09T09:38:17;18.70;99.90
6357;DHT22;3211;53.452;-2.264;2022-09-09T09:41:02;19.00;99.90
6357;DHT22;3211;53.452;-2.264;2022-09-09T09:43:53;18.80;99.90
6357;DHT22;3211;53.452;-2.264;2022-09-09T09:46:36;18.70;99.90
6357;DHT22;3211;53.452;-2.264;2022-09-09T09:49:18;19.00;99.90
6357;DHT22;3211;53.452;-2.264;2022-09-09T09:52:00;19.40;99.90
6357;DHT22;3211;53.452;-2.264;2022-09-09T09:54:43;19.90;99.90
6357;DHT22;3211;53.452;-2.264;2022-09-09T09:57:29;19.80;99.90
6357;DHT22;3211;53.452;-2.264;2022-09-09T10:00:14;19.60;99.90
6357;DHT22;3211;53.452;-2.264;2022-09-09T10:02:57;19.60;99.90
6357;DHT22;3211;53.452;-2.264;2022-09-09T10:05:45;19.60;99.90
6357;DHT22;3211;53.452;-2.264;2022-09-09T10:08:28;19.60;99.90
6357;DHT22;3211;53.452;-2.264;2022-09-09T10:11:23;19.90;99.90
6357;DHT22;3211;53.452;-2.264;2022-09-09T10:14:17;20.10;99.90
6357;DHT22;3211;53.452;-2.264;2022-09-09T10:17:12;20.50;99.90
6357;DHT22;3211;53.452;-2.264;2022-09-09T10:20:12;20.70;99.90
6357;DHT22;3211;53.452;-2.264;2022-09-09T10:23:06;20.50;99.90
6357;DHT22;3211;53.452;-2.264;2022-09-09T10:26:07;20.30;99.90
6357;DHT22;3211;53.452;-2.264;2022-09-09T10:32:26;20.30;99.90
6357;DHT22;3211;53.452;-2.264;2022-09-09T10:35:27;20.60;99.90
6357;DHT22;3211;53.452;-2.264;2022-09-09T10:38:16;21.00;99.90
6357;DHT22;3211;53.452;-2.264;2022-09-09T10:41:06;21.00;99.90
6357;DHT22;3211;53.452;-2.264;2022-09-09T10:44:02;20.70;99.90
6357;DHT22;3211;53.452;-2.264;2022-09-09T10:47:13;20.40;99.90
6357;DHT22;3211;53.452;-2.264;2022-09-09T10:50:29;20.30;99.90
6357;DHT22;3211;53.452;-2.264;2022-09-09T10:53:22;20.00;99.90
6357;DHT22;3211;53.452;-2.264;2022-09-09T10:56:09;19.70;99.90
6357;DHT22;3211;53.452;-2.264;2022-09-09T10:58:54;19.50;99.90
6357;DHT22;3211;53.452;-2.264;2022-09-09T11:01:41;19.30;99.90
6357;DHT22;3211;53.452;-2.264;2022-09-09T11:04:29;19.00;99.90
6357;DHT22;3211;53.452;-2.264;2022-09-09T11:07:24;18.90;99.90
6357;DHT22;3211;53.452;-2.264;2022-09-09T11:10:17;18.70;99.90
6357;DHT22;3211;53.452;-2.264;2022-09-09T11:13:04;18.70;99.90
6357;DHT22;3211;53.452;-2.264;2022-09-09T11:15:50;18.80;99.90
6357;DHT22;3211;53.452;-2.264;2022-09-09T11:18:38;19.00;99.90
6357;DHT22;3211;53.452;-2.264;2022-09-09T11:21:26;19.20;99.90
6357;DHT22;3211;53.452;-2.264;2022-09-09T11:24:14;19.60;99.90
6357;DHT22;3211;53.452;-2.264;2022-09-09T11:27:02;19.40;99.90
6357;DHT22;3211;53.452;-2.264;2022-09-09T11:33:12;19.50;99.90
6357;DHT22;3211;53.452;-2.264;2022-09-09T11:36:19;19.50;99.90
6357;DHT22;3211;53.452;-2.264;2022-09-09T11:39:18;19.80;99.90
6357;DHT22;3211;53.452;-2.264;2022-09-09T11:42:06;19.80;99.90
6357;DHT22;3211;53.452;-2.264;2022-09-09T11:44:49;19.70;99.90
6357;DHT22;3211;53.452;-2.264;2022-09-09T11:47:32;19.90;99.90
6357;DHT22;3211;53.452;-2.264;2022-09-09T11:50:28;19.60;99.90
6357;DHT22;3211;53.452;-2.264;2022-09-09T11:53:22;19.50;99.90
6357;DHT22;3211;53.452;-2.264;2022-09-09T11:56:10;19.20;99.90
6357;DHT22;3211;53.452;-2.264;2022-09-09T11:59:19;19.00;99.90
6357;DHT22;3211;53.452;-2.264;2022-09-09T12:02:02;18.70;99.90
6357;DHT22;3211;53.452;-2.264;2022-09-09T12:04:54;18.40;99.90
6357;DHT22;3211;53.452;-2.264;2022-09-09T12:07:38;18.20;99.90
6357;DHT22;3211;53.452;-2.264;2022-09-09T12:10:27;18.20;99.90
6357;DHT22;3211;53.452;-2.264;2022-09-09T12:13:18;18.10;99.90
6357;DHT22;3211;53.452;-2.264;2022-09-09T12:16:01;18.20;99.90
6357;DHT22;3211;53.452;-2.264;2022-09-09T12:18:45;18.30;99.90
6357;DHT22;3211;53.452;-2.264;2022-09-09T12:21:34;18.30;99.90
6357;DHT22;3211;53.452;-2.264;2022-09-09T12:24:26;18.40;99.90
6357;DHT22;3211;53.452;-2.264;2022-09-09T12:27:15;18.60;99.90
6357;DHT22;3211;53.452;-2.264;2022-09-09T12:30:07;18.40;99.90
6357;DHT22;3211;53.452;-2.264;2022-09-09T12:33:00;18.50;99.90
6357;DHT22;3211;53.452;-2.264;2022-09-09T12:35:44;18.50;99.90
6357;DHT22;3211;53.452;-2.264;2022-09-09T12:38:32;18.20;99.90
6357;DHT22;3211;53.452;-2.264;2022-09-09T12:41:22;17.80;99.90
6357;DHT22;3211;53.452;-2.264;2022-09-09T12:44:05;17.70;99.90
6357;DHT22;3211;53.452;-2.264;2022-09-09T12:46:51;17.60;99.90
6357;DHT22;3211;53.452;-2.264;2022-09-09T12:49:36;17.70;99.90
6357;DHT22;3211;53.452;-2.264;2022-09-09T12:52:24;17.70;99.90
6357;DHT22;3211;53.452;-2.264;2022-09-09T12:55:07;17.60;99.90
6357;DHT22;3211;53.452;-2.264;2022-09-09T12:57:58;17.80;99.90
6357;DHT22;3211;53.452;-2.264;2022-09-09T13:00:49;18.00;99.90
6357;DHT22;3211;53.452;-2.264;2022-09-09T13:03:42;18.10;99.90
6357;DHT22;3211;53.452;-2.264;2022-09-09T13:06:29;18.20;99.90
6357;DHT22;3211;53.452;-2.264;2022-09-09T13:09:11;18.30;99.90
6357;DHT22;3211;53.452;-2.264;2022-09-09T13:11:55;18.30;99.90
6357;DHT22;3211;53.452;-2.264;2022-09-09T13:14:38;18.40;99.90
6357;DHT22;3211;53.452;-2.264;2022-09-09T13:17:22;18.90;99.90
6357;DHT22;3211;53.452;-2.264;2022-09-09T13:20:16;19.30;99.90
6357;DHT22;3211;53.452;-2.264;2022-09-09T13:22:58;19.60;99.90
6357;DHT22;3211;53.452;-2.264;2022-09-09T13:25:40;19.70;99.90
6357;DHT22;3211;53.452;-2.264;2022-09-09T13:28:25;19.90;99.90
6357;DHT22;3211;53.452;-2.264;2022-09-09T13:31:20;19.90;99.90
6357;DHT22;3211;53.452;-2.264;2022-09-09T13:34:11;20.20;99.90
6357;DHT22;3211;53.452;-2.264;2022-09-09T13:36:59;20.70;99.90
6357;DHT22;3211;53.452;-2.264;2022-09-09T13:39:51;20.60;99.90
6357;DHT22;3211;53.452;-2.264;2022-09-09T13:42:39;20.80;99.90
6357;DHT22;3211;53.452;-2.264;2022-09-09T13:45:25;21.20;99.90
6357;DHT22;3211;53.452;-2.264;2022-09-09T13:48:10;21.50;99.90
6357;DHT22;3211;53.452;-2.264;2022-09-09T13:50:55;21.70;99.90
6357;DHT22;3211;53.452;-2.264;2022-09-09T13:53:39;21.90;99.90
6357;DHT22;3211;53.452;-2.264;2022-09-09T13:56:21;22.10;99.90
6357;DHT22;3211;53.452;-2.264;2022-09-09T13:59:04;22.10;99.90
6357;DHT22;3211;53.452;-2.264;2022-09-09T14:01:47;23.10;99.90
6357;DHT22;3211;53.452;-2.264;2022-09-09T14:04:29;23.40;99.90
6357;DHT22;3211;53.452;-2.264;2022-09-09T14:07:13;23.60;99.90
6357;DHT22;3211;53.452;-2.264;2022-09-09T14:09:56;22.30;99.90
6357;DHT22;3211;53.452;-2.264;2022-09-09T14:12:41;21.20;99.90
6357;DHT22;3211;53.452;-2.264;2022-09-09T14:15:23;20.20;99.90
6357;DHT22;3211;53.452;-2.264;2022-09-09T14:18:05;18.90;99.90
6357;DHT22;3211;53.452;-2.264;2022-09-09T14:20:47;18.20;99.90
6357;DHT22;3211;53.452;-2.264;2022-09-09T14:23:29;17.90;99.90
6357;DHT22;3211;53.452;-2.264;2022-09-09T14:26:12;17.70;99.90
6357;DHT22;3211;53.452;-2.264;2022-09-09T14:28:54;17.60;99.90
6357;DHT22;3211;53.452;-2.264;2022-09-09T14:31:36;17.60;99.90
6357;DHT22;3211;53.452;-2.264;2022-09-09T14:34:18;17.60;99.90
6357;DHT22;3211;53.452;-2.264;2022-09-09T14:37:00;17.60;99.90
6357;DHT22;3211;53.452;-2.264;2022-09-09T14:39:42;17.80;99.90
6357;DHT22;3211;53.452;-2.264;2022-09-09T14:42:26;17.80;99.90
6357;DHT22;3211;53.452;-2.264;2022-09-09T14:45:11;17.90;99.90
6357;DHT22;3211;53.452;-2.264;2022-09-09T14:47:53;18.10;99.90
6357;DHT22;3211;53.452;-2.264;2022-09-09T14:50:35;18.30;99.90
6357;DHT22;3211;53.452;-2.264;2022-09-09T14:53:20;18.60;99.90
6357;DHT22;3211;53.452;-2.264;2022-09-09T14:56:06;18.90;99.90
6357;DHT22;3211;53.452;-2.264;2022-09-09T14:58:52;19.30;99.90
6357;DHT22;3211;53.452;-2.264;2022-09-09T15:01:34;19.50;99.90
6357;DHT22;3211;53.452;-2.264;2022-09-09T15:04:16;19.70;99.90
6357;DHT22;3211;53.452;-2.264;2022-09-09T15:06:58;19.60;99.90
6357;DHT22;3211;53.452;-2.264;2022-09-09T15:09:40;19.30;99.90
6357;DHT22;3211;53.452;-2.264;2022-09-09T15:12:22;19.20;99.90
6357;DHT22;3211;53.452;-2.264;2022-09-09T15:15:07;19.30;99.90
6357;DHT22;3211;53.452;-2.264;2022-09-09T15:17:49;19.00;99.90
6357;DHT22;3211;53.452;-2.264;2022-09-09T15:20:31;19.20;99.90
6357;DHT22;3211;53.452;-2.264;2022-09-09T15:23:13;19.40;99.90
6357;DHT22;3211;53.452;-2.264;2022-09-09T15:25:56;19.50;99.90
6357;DHT22;3211;53.452;-2.264;2022-09-09T15:28:38;19.20;99.90
6357;DHT22;3211;53.452;-2.264;2022-09-09T15:31:23;19.40;99.90
6357;DHT22;3211;53.452;-2.264;2022-09-09T15:34:06;19.00;99.90
6357;DHT22;3211;53.452;-2.264;2022-09-09T15:36:49;19.00;99.90
6357;DHT22;3211;53.452;-2.264;2022-09-09T15:39:31;19.00;99.90
6357;DHT22;3211;53.452;-2.264;2022-09-09T15:42:13;19.10;99.90
6357;DHT22;3211;53.452;-2.264;2022-09-09T15:44:55;19.20;99.90
6357;DHT22;3211;53.452;-2.264;2022-09-09T15:47:39;19.40;99.90
6357;DHT22;3211;53.452;-2.264;2022-09-09T15:50:20;19.20;99.90
6357;DHT22;3211;53.452;-2.264;2022-09-09T15:53:03;19.50;99.90
6357;DHT22;3211;53.452;-2.264;2022-09-09T15:55:46;19.20;99.90
6357;DHT22;3211;53.452;-2.264;2022-09-09T15:58:30;19.50;99.90
6357;DHT22;3211;53.452;-2.264;2022-09-09T16:01:12;21.60;99.90
6357;DHT22;3211;53.452;-2.264;2022-09-09T16:03:57;25.80;99.90
6357;DHT22;3211;53.452;-2.264;2022-09-09T16:06:40;28.40;99.30
6357;DHT22;3211;53.452;-2.264;2022-09-09T16:09:22;25.70;99.90
6357;DHT22;3211;53.452;-2.264;2022-09-09T16:12:04;23.50;99.90
6357;DHT22;3211;53.452;-2.264;2022-09-09T16:14:50;22.10;99.90
6357;DHT22;3211;53.452;-2.264;2022-09-09T16:17:32;21.30;99.90
6357;DHT22;3211;53.452;-2.264;2022-09-09T16:20:19;21.00;99.90
6357;DHT22;3211;53.452;-2.264;2022-09-09T16:23:01;21.20;99.90
6357;DHT22;3211;53.452;-2.264;2022-09-09T16:25:43;22.10;99.90
6357;DHT22;3211;53.452;-2.264;2022-09-09T16:28:25;23.20;99.90
6357;DHT22;3211;53.452;-2.264;2022-09-09T16:31:09;22.50;99.90
6357;DHT22;3211;53.452;-2.264;2022-09-09T16:33:51;22.10;99.90
6357;DHT22;3211;53.452;-2.264;2022-09-09T16:36:37;21.40;99.90
6357;DHT22;3211;53.452;-2.264;2022-09-09T16:39:20;20.80;99.90
6357;DHT22;3211;53.452;-2.264;2022-09-09T16:42:02;20.40;99.90
6357;DHT22;3211;53.452;-2.264;2022-09-09T16:44:45;20.10;99.90
6357;DHT22;3211;53.452;-2.264;2022-09-09T16:47:27;19.80;99.90
6357;DHT22;3211;53.452;-2.264;2022-09-09T16:50:09;19.70;99.90
6357;DHT22;3211;53.452;-2.264;2022-09-09T16:52:53;19.70;99.90
6357;DHT22;3211;53.452;-2.264;2022-09-09T16:55:39;19.60;99.90
6357;DHT22;3211;53.452;-2.264;2022-09-09T16:58:21;19.60;99.90
6357;DHT22;3211;53.452;-2.264;2022-09-09T17:01:03;19.50;99.90
6357;DHT22;3211;53.452;-2.264;2022-09-09T17:03:45;19.60;99.90
6357;DHT22;3211;53.452;-2.264;2022-09-09T17:06:28;19.50;99.90
6357;DHT22;3211;53.452;-2.264;2022-09-09T17:09:12;19.50;99.90
6357;DHT22;3211;53.452;-2.264;2022-09-09T17:11:54;19.40;99.90
6357;DHT22;3211;53.452;-2.264;2022-09-09T17:14:36;19.20;99.90
6357;DHT22;3211;53.452;-2.264;2022-09-09T17:17:18;19.30;99.90
6357;DHT22;3211;53.452;-2.264;2022-09-09T17:20:02;19.40;99.90
6357;DHT22;3211;53.452;-2.264;2022-09-09T17:22:44;19.60;99.90
6357;DHT22;3211;53.452;-2.264;2022-09-09T17:25:27;19.80;99.90
6357;DHT22;3211;53.452;-2.264;2022-09-09T17:28:09;19.80;99.90
6357;DHT22;3211;53.452;-2.264;2022-09-09T17:30:52;19.80;99.90
6357;DHT22;3211;53.452;-2.264;2022-09-09T17:33:36;19.60;99.90
6357;DHT22;3211;53.452;-2.264;2022-09-09T17:36:20;19.40;99.90
6357;DHT22;3211;53.452;-2.264;2022-09-09T17:39:04;19.20;99.90
6357;DHT22;3211;53.452;-2.264;2022-09-09T17:41:47;19.10;99.90
6357;DHT22;3211;53.452;-2.264;2022-09-09T17:44:30;19.00;99.90
6357;DHT22;3211;53.452;-2.264;2022-09-09T17:47:12;19.00;99.90
6357;DHT22;3211;53.452;-2.264;2022-09-09T17:49:54;18.90;99.90
6357;DHT22;3211;53.452;-2.264;2022-09-09T17:52:36;19.00;99.90
6357;DHT22;3211;53.452;-2.264;2022-09-09T17:55:18;19.00;99.90